sensor_id;sensor_type;location;lat;lon;timestamp;temperature;humidity
7167;DHT22;3625;51.762;14.320;2022-10-31T00:01:11;11.10;99.90
7167;DHT22;3625;51.762;14.320;2022-10-31T00:03:40;11.10;99.90
7167;DHT22;3625;51.762;14.320;2022-10-31T00:06:08;11.10;99.90
7167;DHT22;3625;51.762;14.320;2022-10-31T00:11:08;11.10;99.90
7167;DHT22;3625;51.762;14.320;2022-10-31T00:16:06;11.00;99.90
7167;DHT22;3625;51.762;14.320;2022-10-31T00:18:41;11.00;99.90
7167;DHT22;3625;51.762;14.320;2022-10-31T00:21:09;11.00;99.90
7167;DHT22;3625;51.762;14.320;2022-10-31T00:23:37;10.90;99.90
7167;DHT22;3625;51.762;14.320;2022-10-31T00:28:34;10.90;99.90
7167;DHT22;3625;51.762;14.320;2022-10-31T00:31:04;10.90;99.90
7167;DHT22;3625;51.762;14.320;2022-10-31T00:33:34;10.80;99.90
7167;DHT22;3625;51.762;14.320;2022-10-31T00:36:06;10.80;99.90
7167;DHT22;3625;51.762;14.320;2022-10-31T00:38:35;10.80;99.90
7167;DHT22;3625;51.762;14.320;2022-10-31T00:46:00;10.80;99.90
7167;DHT22;3625;51.762;14.320;2022-10-31T00:48:28;10.80;99.90
7167;DHT22;3625;51.762;14.320;2022-10-31T00:53:26;10.80;99.90
7167;DHT22;3625;51.762;14.320;2022-10-31T00:55:54;10.80;99.90
7167;DHT22;3625;51.762;14.320;2022-10-31T00:58:23;10.80;99.90
7167;DHT22;3625;51.762;14.320;2022-10-31T01:00:51;10.70;99.90
7167;DHT22;3625;51.762;14.320;2022-10-31T01:03:23;10.70;99.90
7167;DHT22;3625;51.762;14.320;2022-10-31T01:05:58;10.70;99.90
7167;DHT22;3625;51.762;14.320;2022-10-31T01:08:28;10.70;99.90
7167;DHT22;3625;51.762;14.320;2022-10-31T01:11:05;10.70;99.90
7167;DHT22;3625;51.762;14.320;2022-10-31T01:13:34;10.60;99.90
7167;DHT22;3625;51.762;14.320;2022-10-31T01:16:04;10.70;99.90
7167;DHT22;3625;51.762;14.320;2022-10-31T01:18:34;10.70;99.90
7167;DHT22;3625;51.762;14.320;2022-10-31T01:21:04;10.60;99.90
7167;DHT22;3625;51.762;14.320;2022-10-31T01:23:34;10.60;99.90
7167;DHT22;3625;51.762;14.320;2022-10-31T01:26:07;10.60;99.90
7167;DHT22;3625;51.762;14.320;2022-10-31T01:28:36;10.60;99.90
7167;DHT22;3625;51.762;14.320;2022-10-31T01:31:07;10.60;99.90
7167;DHT22;3625;51.762;14.320;2022-10-31T01:33:36;10.60;99.90
7167;DHT22;3625;51.762;14.320;2022-10-31T01:36:15;10.60;99.90
7167;DHT22;3625;51.762;14.320;2022-10-31T01:38:46;10.50;99.90
7167;DHT22;3625;51.762;14.320;2022-10-31T01:41:17;10.60;99.90
7167;DHT22;3625;51.762;14.320;2022-10-31T01:43:48;10.50;99.90
7167;DHT22;3625;51.762;14.320;2022-10-31T01:46:19;10.60;99.90
7167;DHT22;3625;51.762;14.320;2022-10-31T01:48:50;10.60;99.90
7167;DHT22;3625;51.762;14.320;2022-10-31T01:51:20;10.50;99.90
7167;DHT22;3625;51.762;14.320;2022-10-31T01:53:54;10.50;99.90
7167;DHT22;3625;51.762;14.320;2022-10-31T02:01:20;10.50;99.90
7167;DHT22;3625;51.762;14.320;2022-10-31T02:03:49;10.50;99.90
7167;DHT22;3625;51.762;14.320;2022-10-31T02:06:26;10.50;99.90
7167;DHT22;3625;51.762;14.320;2022-10-31T02:08:59;10.50;99.90
7167;DHT22;3625;51.762;14.320;2022-10-31T02:11:28;10.50;99.90
7167;DHT22;3625;51.762;14.320;2022-10-31T02:13:58;10.50;99.90
7167;DHT22;3625;51.762;14.320;2022-10-31T02:16:27;10.50;99.90
7167;DHT22;3625;51.762;14.320;2022-10-31T02:18:56;10.40;99.90
7167;DHT22;3625;51.762;14.320;2022-10-31T02:21:29;10.50;99.90
7167;DHT22;3625;51.762;14.320;2022-10-31T02:24:28;10.40;99.90
7167;DHT22;3625;51.762;14.320;2022-10-31T02:27:17;10.40;99.90
7167;DHT22;3625;51.762;14.320;2022-10-31T02:30:05;10.40;99.90
7167;DHT22;3625;51.762;14.320;2022-10-31T02:32:51;10.40;99.90
7167;DHT22;3625;51.762;14.320;2022-10-31T02:35:30;10.40;99.90
7167;DHT22;3625;51.762;14.320;2022-10-31T02:38:05;10.40;99.90
7167;DHT22;3625;51.762;14.320;2022-10-31T02:40:45;10.40;99.90
7167;DHT22;3625;51.762;14.320;2022-10-31T02:43:29;10.30;99.90
7167;DHT22;3625;51.762;14.320;2022-10-31T02:46:03;10.30;99.90
7167;DHT22;3625;51.762;14.320;2022-10-31T02:48:38;10.30;99.90
7167;DHT22;3625;51.762;14.320;2022-10-31T02:51:07;10.30;99.90
7167;DHT22;3625;51.762;14.320;2022-10-31T02:53:37;10.20;99.90
7167;DHT22;3625;51.762;14.320;2022-10-31T02:56:12;10.30;99.90
7167;DHT22;3625;51.762;14.320;2022-10-31T02:58:44;10.30;99.90
7167;DHT22;3625;51.762;14.320;2022-10-31T03:04:29;10.30;99.90
7167;DHT22;3625;51.762;14.320;2022-10-31T03:07:06;10.30;99.90
7167;DHT22;3625;51.762;14.320;2022-10-31T03:09:41;10.30;99.90
7167;DHT22;3625;51.762;14.320;2022-10-31T03:12:15;10.30;99.90
7167;DHT22;3625;51.762;14.320;2022-10-31T03:14:52;10.30;99.90
7167;DHT22;3625;51.762;14.320;2022-10-31T03:17:24;10.30;99.90
7167;DHT22;3625;51.762;14.320;2022-10-31T03:20:00;10.30;99.90
7167;DHT22;3625;51.762;14.320;2022-10-31T03:22:30;10.30;99.90
7167;DHT22;3625;51.762;14.320;2022-10-31T03:25:01;10.20;99.90
7167;DHT22;3625;51.762;14.320;2022-10-31T03:27:32;10.20;99.90
7167;DHT22;3625;51.762;14.320;2022-10-31T03:30:03;10.20;99.90
7167;DHT22;3625;51.762;14.320;2022-10-31T03:32:50;10.20;99.90
7167;DHT22;3625;51.762;14.320;2022-10-31T03:35:24;10.20;99.90
7167;DHT22;3625;51.762;14.320;2022-10-31T03:37:54;10.20;99.90
7167;DHT22;3625;51.762;14.320;2022-10-31T03:40:24;10.20;99.90
7167;DHT22;3625;51.762;14.320;2022-10-31T03:45:29;10.10;99.90
7167;DHT22;3625;51.762;14.320;2022-10-31T03:47:59;10.10;99.90
7167;DHT22;3625;51.762;14.320;2022-10-31T03:50:38;10.10;99.90
7167;DHT22;3625;51.762;14.320;2022-10-31T03:53:11;10.10;99.90
7167;DHT22;3625;51.762;14.320;2022-10-31T03:55:46;10.10;99.90
7167;DHT22;3625;51.762;14.320;2022-10-31T03:58:20;10.10;99.90
7167;DHT22;3625;51.762;14.320;2022-10-31T04:00:51;10.20;99.90
7167;DHT22;3625;51.762;14.320;2022-10-31T04:03:23;10.10;99.90
7167;DHT22;3625;51.762;14.320;2022-10-31T04:05:59;10.10;99.90
7167;DHT22;3625;51.762;14.320;2022-10-31T04:11:00;10.10;99.90
7167;DHT22;3625;51.762;14.320;2022-10-31T04:13:33;10.10;99.90
7167;DHT22;3625;51.762;14.320;2022-10-31T04:16:09;10.10;99.90
7167;DHT22;3625;51.762;14.320;2022-10-31T04:21:11;10.10;99.90
7167;DHT22;3625;51.762;14.320;2022-10-31T04:51:28;9.90;99.90
7167;DHT22;3625;51.762;14.320;2022-10-31T04:53:56;9.90;99.90
7167;DHT22;3625;51.762;14.320;2022-10-31T04:59:01;9.80;99.90
7167;DHT22;3625;51.762;14.320;2022-10-31T05:06:40;9.90;99.90
7167;DHT22;3625;51.762;14.320;2022-10-31T05:09:08;9.80;99.90
7167;DHT22;3625;51.762;14.320;2022-10-31T05:19:59;9.90;99.90
7167;DHT22;3625;51.762;14.320;2022-10-31T05:23:04;9.90;99.90
7167;DHT22;3625;51.762;14.320;2022-10-31T05:25:32;9.80;99.90
7167;DHT22;3625;51.762;14.320;2022-10-31T05:38:36;9.70;99.90
7167;DHT22;3625;51.762;14.320;2022-10-31T05:49:00;9.70;99.90
7167;DHT22;3625;51.762;14.320;2022-10-31T05:51:47;9.70;99.90
7167;DHT22;3625;51.762;14.320;2022-10-31T05:54:17;9.70;99.90
7167;DHT22;3625;51.762;14.320;2022-10-31T06:14:59;9.90;99.90
7167;DHT22;3625;51.762;14.320;2022-10-31T06:25:27;10.00;99.90
7167;DHT22;3625;51.762;14.320;2022-10-31T06:33:02;10.10;99.90
7167;DHT22;3625;51.762;14.320;2022-10-31T06:40:41;10.30;99.90
7167;DHT22;3625;51.762;14.320;2022-10-31T07:41:27;11.70;99.90
7167;DHT22;3625;51.762;14.320;2022-10-31T07:49:40;11.90;99.90
7167;DHT22;3625;51.762;14.320;2022-10-31T07:52:26;12.00;99.90
7167;DHT22;3625;51.762;14.320;2022-10-31T07:55:15;12.10;99.90
7167;DHT22;3625;51.762;14.320;2022-10-31T07:57:55;12.20;99.90
7167;DHT22;3625;51.762;14.320;2022-10-31T08:00:23;12.30;99.90
7167;DHT22;3625;51.762;14.320;2022-10-31T08:02:59;12.40;99.90
7167;DHT22;3625;51.762;14.320;2022-10-31T08:08:36;12.50;99.90
7167;DHT22;3625;51.762;14.320;2022-10-31T08:11:06;12.60;99.90
7167;DHT22;3625;51.762;14.320;2022-10-31T08:13:36;12.80;99.90
7167;DHT22;3625;51.762;14.320;2022-10-31T08:16:05;12.80;99.90
7167;DHT22;3625;51.762;14.320;2022-10-31T08:26:07;13.10;99.90
7167;DHT22;3625;51.762;14.320;2022-10-31T08:28:37;13.20;99.90
7167;DHT22;3625;51.762;14.320;2022-10-31T08:31:05;13.30;99.90
7167;DHT22;3625;51.762;14.320;2022-10-31T08:33:39;13.40;99.90
7167;DHT22;3625;51.762;14.320;2022-10-31T08:36:27;13.50;99.90
7167;DHT22;3625;51.762;14.320;2022-10-31T08:39:09;13.50;99.90
7167;DHT22;3625;51.762;14.320;2022-10-31T08:44:12;13.70;99.90
7167;DHT22;3625;51.762;14.320;2022-10-31T08:51:42;13.90;99.90
7167;DHT22;3625;51.762;14.320;2022-10-31T08:59:39;14.20;99.90
7167;DHT22;3625;51.762;14.320;2022-10-31T09:14:57;14.50;99.90
7167;DHT22;3625;51.762;14.320;2022-10-31T09:17:36;14.50;99.90
7167;DHT22;3625;51.762;14.320;2022-10-31T09:22:46;14.60;99.90
7167;DHT22;3625;51.762;14.320;2022-10-31T09:27:49;14.70;99.90
7167;DHT22;3625;51.762;14.320;2022-10-31T09:30:19;14.80;99.90
7167;DHT22;3625;51.762;14.320;2022-10-31T09:32:54;14.80;99.90
7167;DHT22;3625;51.762;14.320;2022-10-31T09:35:22;14.80;99.90
7167;DHT22;3625;51.762;14.320;2022-10-31T09:37:54;14.90;99.90
7167;DHT22;3625;51.762;14.320;2022-10-31T09:40:27;14.90;99.90
7167;DHT22;3625;51.762;14.320;2022-10-31T09:43:02;14.90;99.90
7167;DHT22;3625;51.762;14.320;2022-10-31T09:45:38;14.90;99.90
7167;DHT22;3625;51.762;14.320;2022-10-31T10:01:53;15.60;99.90
7167;DHT22;3625;51.762;14.320;2022-10-31T10:04:36;15.70;99.90
7167;DHT22;3625;51.762;14.320;2022-10-31T10:07:22;15.70;99.90
7167;DHT22;3625;51.762;14.320;2022-10-31T10:10:20;15.80;99.90
7167;DHT22;3625;51.762;14.320;2022-10-31T10:13:42;15.90;99.90
7167;DHT22;3625;51.762;14.320;2022-10-31T10:16:36;16.00;99.90
7167;DHT22;3625;51.762;14.320;2022-10-31T10:19:30;16.00;99.90
7167;DHT22;3625;51.762;14.320;2022-10-31T10:22:15;16.10;99.90
7167;DHT22;3625;51.762;14.320;2022-10-31T10:25:07;16.20;99.90
7167;DHT22;3625;51.762;14.320;2022-10-31T10:27:52;16.20;99.90
7167;DHT22;3625;51.762;14.320;2022-10-31T10:30:34;16.30;99.90
7167;DHT22;3625;51.762;14.320;2022-10-31T10:33:11;16.20;99.90
7167;DHT22;3625;51.762;14.320;2022-10-31T10:35:47;16.30;99.90
7167;DHT22;3625;51.762;14.320;2022-10-31T10:38:23;16.40;99.90
7167;DHT22;3625;51.762;14.320;2022-10-31T10:40:58;16.50;99.90
7167;DHT22;3625;51.762;14.320;2022-10-31T10:43:33;16.50;99.90
7167;DHT22;3625;51.762;14.320;2022-10-31T10:46:16;16.70;99.90
7167;DHT22;3625;51.762;14.320;2022-10-31T10:49:15;18.90;99.90
7167;DHT22;3625;51.762;14.320;2022-10-31T10:51:53;16.90;99.90
7167;DHT22;3625;51.762;14.320;2022-10-31T10:54:56;17.00;99.90
7167;DHT22;3625;51.762;14.320;2022-10-31T10:57:46;17.10;99.90
7167;DHT22;3625;51.762;14.320;2022-10-31T11:00:25;17.20;99.90
7167;DHT22;3625;51.762;14.320;2022-10-31T11:05:33;17.30;99.90
7167;DHT22;3625;51.762;14.320;2022-10-31T11:08:06;17.40;99.90
7167;DHT22;3625;51.762;14.320;2022-10-31T11:13:20;17.60;99.90
7167;DHT22;3625;51.762;14.320;2022-10-31T11:15:56;17.70;99.90
7167;DHT22;3625;51.762;14.320;2022-10-31T11:18:42;17.70;99.90
7167;DHT22;3625;51.762;14.320;2022-10-31T11:21:21;17.80;99.90
7167;DHT22;3625;51.762;14.320;2022-10-31T11:24:07;17.80;99.90
7167;DHT22;3625;51.762;14.320;2022-10-31T11:26:45;17.80;99.90
7167;DHT22;3625;51.762;14.320;2022-10-31T11:29:20;17.70;99.90
7167;DHT22;3625;51.762;14.320;2022-10-31T11:31:55;17.70;99.90
7167;DHT22;3625;51.762;14.320;2022-10-31T11:34:31;17.70;99.90
7167;DHT22;3625;51.762;14.320;2022-10-31T11:37:11;17.70;99.90
7167;DHT22;3625;51.762;14.320;2022-10-31T11:39:48;17.50;99.90
7167;DHT22;3625;51.762;14.320;2022-10-31T11:42:22;17.70;99.90
7167;DHT22;3625;51.762;14.320;2022-10-31T11:44:56;17.60;99.90
7167;DHT22;3625;51.762;14.320;2022-10-31T11:47:27;17.70;99.90
7167;DHT22;3625;51.762;14.320;2022-10-31T11:50:02;17.60;99.90
7167;DHT22;3625;51.762;14.320;2022-10-31T11:52:40;15.80;99.90
7167;DHT22;3625;51.762;14.320;2022-10-31T11:55:29;17.60;99.90
7167;DHT22;3625;51.762;14.320;2022-10-31T11:58:00;17.70;99.90
7167;DHT22;3625;51.762;14.320;2022-10-31T12:00:33;17.70;99.90
7167;DHT22;3625;51.762;14.320;2022-10-31T12:03:20;17.70;99.90
7167;DHT22;3625;51.762;14.320;2022-10-31T12:06:10;17.70;99.90
7167;DHT22;3625;51.762;14.320;2022-10-31T12:08:45;17.80;99.90
7167;DHT22;3625;51.762;14.320;2022-10-31T12:11:32;17.80;99.90
7167;DHT22;3625;51.762;14.320;2022-10-31T12:14:17;17.80;99.90
7167;DHT22;3625;51.762;14.320;2022-10-31T12:17:00;17.80;99.90
7167;DHT22;3625;51.762;14.320;2022-10-31T12:19:40;17.80;99.90
7167;DHT22;3625;51.762;14.320;2022-10-31T12:22:25;17.90;99.90
7167;DHT22;3625;51.762;14.320;2022-10-31T12:25:22;17.90;99.90
7167;DHT22;3625;51.762;14.320;2022-10-31T12:28:09;20.40;99.90
7167;DHT22;3625;51.762;14.320;2022-10-31T12:31:01;17.90;99.90
7167;DHT22;3625;51.762;14.320;2022-10-31T12:33:53;18.00;99.90
7167;DHT22;3625;51.762;14.320;2022-10-31T12:36:42;18.00;99.90
7167;DHT22;3625;51.762;14.320;2022-10-31T12:39:25;18.10;99.90
7167;DHT22;3625;51.762;14.320;2022-10-31T12:42:09;18.10;99.90
7167;DHT22;3625;51.762;14.320;2022-10-31T12:45:25;18.10;99.90
7167;DHT22;3625;51.762;14.320;2022-10-31T12:48:27;18.10;99.90
7167;DHT22;3625;51.762;14.320;2022-10-31T12:51:32;18.20;99.90
7167;DHT22;3625;51.762;14.320;2022-10-31T12:54:25;18.20;99.90
7167;DHT22;3625;51.762;14.320;2022-10-31T12:57:19;18.10;99.90
7167;DHT22;3625;51.762;14.320;2022-10-31T12:59:56;18.00;99.90
7167;DHT22;3625;51.762;14.320;2022-10-31T13:02:33;18.10;99.90
7167;DHT22;3625;51.762;14.320;2022-10-31T13:05:14;18.10;99.90
7167;DHT22;3625;51.762;14.320;2022-10-31T13:07:51;18.10;99.90
7167;DHT22;3625;51.762;14.320;2022-10-31T13:10:26;18.10;99.90
7167;DHT22;3625;51.762;14.320;2022-10-31T13:13:05;18.00;99.90
7167;DHT22;3625;51.762;14.320;2022-10-31T13:15:47;18.00;99.90
7167;DHT22;3625;51.762;14.320;2022-10-31T13:18:26;18.00;99.90
7167;DHT22;3625;51.762;14.320;2022-10-31T13:21:00;18.00;99.90
7167;DHT22;3625;51.762;14.320;2022-10-31T13:23:34;18.10;99.90
7167;DHT22;3625;51.762;14.320;2022-10-31T13:26:27;18.10;99.90
7167;DHT22;3625;51.762;14.320;2022-10-31T13:29:11;18.00;99.90
7167;DHT22;3625;51.762;14.320;2022-10-31T13:31:46;18.00;99.90
7167;DHT22;3625;51.762;14.320;2022-10-31T13:34:25;18.00;99.90
7167;DHT22;3625;51.762;14.320;2022-10-31T13:37:04;18.00;99.90
7167;DHT22;3625;51.762;14.320;2022-10-31T13:40:02;17.90;99.90
7167;DHT22;3625;51.762;14.320;2022-10-31T13:42:52;18.00;99.90
7167;DHT22;3625;51.762;14.320;2022-10-31T13:45:26;18.00;99.90
7167;DHT22;3625;51.762;14.320;2022-10-31T13:47:59;18.00;99.90
7167;DHT22;3625;51.762;14.320;2022-10-31T13:50:32;17.90;99.90
7167;DHT22;3625;51.762;14.320;2022-10-31T13:53:11;17.90;99.90
7167;DHT22;3625;51.762;14.320;2022-10-31T13:55:42;17.90;99.90
7167;DHT22;3625;51.762;14.320;2022-10-31T13:58:25;17.90;99.90
7167;DHT22;3625;51.762;14.320;2022-10-31T14:01:13;17.80;99.90
7167;DHT22;3625;51.762;14.320;2022-10-31T14:03:46;17.90;99.90
7167;DHT22;3625;51.762;14.320;2022-10-31T14:06:51;17.80;99.90
7167;DHT22;3625;51.762;14.320;2022-10-31T14:09:31;17.80;99.90
7167;DHT22;3625;51.762;14.320;2022-10-31T14:12:05;17.70;99.90
7167;DHT22;3625;51.762;14.320;2022-10-31T14:14:43;17.70;99.90
7167;DHT22;3625;51.762;14.320;2022-10-31T14:17:19;17.70;99.90
7167;DHT22;3625;51.762;14.320;2022-10-31T14:20:00;17.70;99.90
7167;DHT22;3625;51.762;14.320;2022-10-31T14:22:45;17.70;99.90
7167;DHT22;3625;51.762;14.320;2022-10-31T14:25:28;17.70;99.90
7167;DHT22;3625;51.762;14.320;2022-10-31T14:28:00;17.60;99.90
7167;DHT22;3625;51.762;14.320;2022-10-31T14:33:09;17.50;99.90
7167;DHT22;3625;51.762;14.320;2022-10-31T14:35:52;17.50;99.90
7167;DHT22;3625;51.762;14.320;2022-10-31T14:38:41;17.50;99.90
7167;DHT22;3625;51.762;14.320;2022-10-31T14:41:40;17.50;99.90
7167;DHT22;3625;51.762;14.320;2022-10-31T14:47:24;17.40;99.90
7167;DHT22;3625;51.762;14.320;2022-10-31T14:50:20;17.30;99.90
7167;DHT22;3625;51.762;14.320;2022-10-31T14:52:54;17.20;99.90
7167;DHT22;3625;51.762;14.320;2022-10-31T14:55:27;17.20;99.90
7167;DHT22;3625;51.762;14.320;2022-10-31T14:57:59;17.10;99.90
7167;DHT22;3625;51.762;14.320;2022-10-31T15:00:32;17.00;99.90
7167;DHT22;3625;51.762;14.320;2022-10-31T15:03:08;16.90;99.90
7167;DHT22;3625;51.762;14.320;2022-10-31T15:05:46;16.80;99.90
7167;DHT22;3625;51.762;14.320;2022-10-31T15:08:33;16.70;99.90
7167;DHT22;3625;51.762;14.320;2022-10-31T15:11:16;16.50;99.90
7167;DHT22;3625;51.762;14.320;2022-10-31T15:13:47;16.40;99.90
7167;DHT22;3625;51.762;14.320;2022-10-31T15:16:19;16.30;99.90
7167;DHT22;3625;51.762;14.320;2022-10-31T15:18:54;16.20;99.90
7167;DHT22;3625;51.762;14.320;2022-10-31T15:21:25;16.10;99.90
7167;DHT22;3625;51.762;14.320;2022-10-31T15:23:57;16.00;99.90
7167;DHT22;3625;51.762;14.320;2022-10-31T15:26:31;15.90;99.90
7167;DHT22;3625;51.762;14.320;2022-10-31T15:29:05;15.80;99.90
7167;DHT22;3625;51.762;14.320;2022-10-31T15:31:48;15.60;99.90
7167;DHT22;3625;51.762;14.320;2022-10-31T15:34:20;15.50;99.90
7167;DHT22;3625;51.762;14.320;2022-10-31T15:36:53;15.40;99.90
7167;DHT22;3625;51.762;14.320;2022-10-31T15:39:21;15.40;99.90
7167;DHT22;3625;51.762;14.320;2022-10-31T15:41:52;15.20;99.90
7167;DHT22;3625;51.762;14.320;2022-10-31T15:44:25;15.10;99.90
7167;DHT22;3625;51.762;14.320;2022-10-31T15:46:57;15.00;99.90
7167;DHT22;3625;51.762;14.320;2022-10-31T15:49:32;14.80;99.90
7167;DHT22;3625;51.762;14.320;2022-10-31T15:52:06;14.70;99.90
7167;DHT22;3625;51.762;14.320;2022-10-31T15:54:46;14.70;99.90
7167;DHT22;3625;51.762;14.320;2022-10-31T15:57:18;14.60;99.90
7167;DHT22;3625;51.762;14.320;2022-10-31T15:59:48;14.60;99.90
7167;DHT22;3625;51.762;14.320;2022-10-31T16:02:19;14.40;99.90
7167;DHT22;3625;51.762;14.320;2022-10-31T16:04:54;14.50;99.90
7167;DHT22;3625;51.762;14.320;2022-10-31T16:07:24;14.40;99.90
7167;DHT22;3625;51.762;14.320;2022-10-31T16:09:55;14.30;99.90
7167;DHT22;3625;51.762;14.320;2022-10-31T16:12:31;14.20;99.90
7167;DHT22;3625;51.762;14.320;2022-10-31T16:15:04;14.10;99.90
7167;DHT22;3625;51.762;14.320;2022-10-31T16:17:42;14.10;99.90
7167;DHT22;3625;51.762;14.320;2022-10-31T16:20:19;14.00;99.90
7167;DHT22;3625;51.762;14.320;2022-10-31T16:22:52;13.90;99.90
7167;DHT22;3625;51.762;14.320;2022-10-31T16:25:28;13.90;99.90
7167;DHT22;3625;51.762;14.320;2022-10-31T16:28:05;13.80;99.90
7167;DHT22;3625;51.762;14.320;2022-10-31T16:30:43;13.70;99.90
7167;DHT22;3625;51.762;14.320;2022-10-31T16:33:24;13.60;99.90
7167;DHT22;3625;51.762;14.320;2022-10-31T16:35:55;13.60;99.90
7167;DHT22;3625;51.762;14.320;2022-10-31T16:43:43;13.40;99.90
7167;DHT22;3625;51.762;14.320;2022-10-31T16:46:22;13.40;99.90
7167;DHT22;3625;51.762;14.320;2022-10-31T16:48:53;13.40;99.90
7167;DHT22;3625;51.762;14.320;2022-10-31T16:53:51;13.20;99.90
7167;DHT22;3625;51.762;14.320;2022-10-31T16:56:26;13.20;99.90
7167;DHT22;3625;51.762;14.320;2022-10-31T16:58:59;13.10;99.90
7167;DHT22;3625;51.762;14.320;2022-10-31T17:01:31;13.20;99.90
7167;DHT22;3625;51.762;14.320;2022-10-31T17:06:28;13.10;99.90
7167;DHT22;3625;51.762;14.320;2022-10-31T17:11:25;13.00;99.90
7167;DHT22;3625;51.762;14.320;2022-10-31T17:13:54;13.00;99.90
7167;DHT22;3625;51.762;14.320;2022-10-31T17:16:24;13.00;99.90
7167;DHT22;3625;51.762;14.320;2022-10-31T17:21:22;13.00;99.90
7167;DHT22;3625;51.762;14.320;2022-10-31T17:23:53;13.10;99.90
7167;DHT22;3625;51.762;14.320;2022-10-31T17:31:21;13.00;99.90
7167;DHT22;3625;51.762;14.320;2022-10-31T17:33:53;13.10;99.90
7167;DHT22;3625;51.762;14.320;2022-10-31T17:36:29;13.20;99.90
7167;DHT22;3625;51.762;14.320;2022-10-31T17:41:26;13.20;99.90
7167;DHT22;3625;51.762;14.320;2022-10-31T17:46:24;13.40;99.90
7167;DHT22;3625;51.762;14.320;2022-10-31T17:48:54;13.30;99.90
7167;DHT22;3625;51.762;14.320;2022-10-31T17:58:49;13.30;99.90
7167;DHT22;3625;51.762;14.320;2022-10-31T18:01:18;13.30;99.90
7167;DHT22;3625;51.762;14.320;2022-10-31T18:06:16;13.30;99.90
7167;DHT22;3625;51.762;14.320;2022-10-31T18:11:16;13.10;99.90
7167;DHT22;3625;51.762;14.320;2022-10-31T18:16:21;13.00;99.90
7167;DHT22;3625;51.762;14.320;2022-10-31T18:18:51;13.00;99.90
7167;DHT22;3625;51.762;14.320;2022-10-31T18:21:22;12.90;99.90
7167;DHT22;3625;51.762;14.320;2022-10-31T18:23:53;13.00;99.90
7167;DHT22;3625;51.762;14.320;2022-10-31T18:26:23;13.00;99.90
7167;DHT22;3625;51.762;14.320;2022-10-31T18:28:54;12.90;99.90
7167;DHT22;3625;51.762;14.320;2022-10-31T18:33:52;12.90;99.90
7167;DHT22;3625;51.762;14.320;2022-10-31T18:36:22;12.80;99.90
7167;DHT22;3625;51.762;14.320;2022-10-31T18:38:52;12.90;99.90
7167;DHT22;3625;51.762;14.320;2022-10-31T18:41:20;12.80;99.90
7167;DHT22;3625;51.762;14.320;2022-10-31T18:48:48;12.70;99.90
7167;DHT22;3625;51.762;14.320;2022-10-31T18:51:16;12.70;99.90
7167;DHT22;3625;51.762;14.320;2022-10-31T18:53:50;12.70;99.90
7167;DHT22;3625;51.762;14.320;2022-10-31T18:56:20;12.70;99.90
7167;DHT22;3625;51.762;14.320;2022-10-31T18:58:49;12.70;99.90
7167;DHT22;3625;51.762;14.320;2022-10-31T19:01:19;12.70;99.90
7167;DHT22;3625;51.762;14.320;2022-10-31T19:03:52;12.60;99.90
7167;DHT22;3625;51.762;14.320;2022-10-31T19:06:21;12.50;99.90
7167;DHT22;3625;51.762;14.320;2022-10-31T19:08:56;12.60;99.90
7167;DHT22;3625;51.762;14.320;2022-10-31T19:11:26;12.60;99.90
7167;DHT22;3625;51.762;14.320;2022-10-31T19:13:56;12.60;99.90
7167;DHT22;3625;51.762;14.320;2022-10-31T19:16:24;12.60;99.90
7167;DHT22;3625;51.762;14.320;2022-10-31T19:18:54;12.50;99.90
7167;DHT22;3625;51.762;14.320;2022-10-31T19:21:25;12.50;99.90
7167;DHT22;3625;51.762;14.320;2022-10-31T19:23:58;12.50;99.90
7167;DHT22;3625;51.762;14.320;2022-10-31T19:26:27;12.40;99.90
7167;DHT22;3625;51.762;14.320;2022-10-31T19:28:56;12.50;99.90
7167;DHT22;3625;51.762;14.320;2022-10-31T19:36:22;12.50;99.90
7167;DHT22;3625;51.762;14.320;2022-10-31T19:38:52;12.50;99.90
7167;DHT22;3625;51.762;14.320;2022-10-31T19:41:24;12.50;99.90
7167;DHT22;3625;51.762;14.320;2022-10-31T19:43:54;12.50;99.90
7167;DHT22;3625;51.762;14.320;2022-10-31T19:46:25;12.50;99.90
7167;DHT22;3625;51.762;14.320;2022-10-31T19:49:14;12.40;99.90
7167;DHT22;3625;51.762;14.320;2022-10-31T19:56:42;12.30;99.90
7167;DHT22;3625;51.762;14.320;2022-10-31T20:06:39;12.20;99.90
7167;DHT22;3625;51.762;14.320;2022-10-31T20:09:09;12.20;99.90
7167;DHT22;3625;51.762;14.320;2022-10-31T20:11:42;12.10;99.90
7167;DHT22;3625;51.762;14.320;2022-10-31T20:14:13;12.20;99.90
7167;DHT22;3625;51.762;14.320;2022-10-31T20:16:43;12.20;99.90
7167;DHT22;3625;51.762;14.320;2022-10-31T20:19:12;12.20;99.90
7167;DHT22;3625;51.762;14.320;2022-10-31T20:21:41;12.20;99.90
7167;DHT22;3625;51.762;14.320;2022-10-31T20:24:10;12.40;99.90
7167;DHT22;3625;51.762;14.320;2022-10-31T20:26:39;12.40;99.90
7167;DHT22;3625;51.762;14.320;2022-10-31T20:29:12;12.50;99.90
7167;DHT22;3625;51.762;14.320;2022-10-31T20:31:44;12.50;99.90
7167;DHT22;3625;51.762;14.320;2022-10-31T20:34:13;12.50;99.90
7167;DHT22;3625;51.762;14.320;2022-10-31T20:39:11;12.60;99.90
7167;DHT22;3625;51.762;14.320;2022-10-31T20:44:10;12.40;99.90
7167;DHT22;3625;51.762;14.320;2022-10-31T20:49:07;12.30;99.90
7167;DHT22;3625;51.762;14.320;2022-10-31T20:56:33;12.10;99.90
7167;DHT22;3625;51.762;14.320;2022-10-31T20:59:02;12.10;99.90
7167;DHT22;3625;51.762;14.320;2022-10-31T21:01:32;12.10;99.90
7167;DHT22;3625;51.762;14.320;2022-10-31T21:04:02;12.10;99.90
7167;DHT22;3625;51.762;14.320;2022-10-31T21:09:00;12.10;99.90
7167;DHT22;3625;51.762;14.320;2022-10-31T21:11:31;12.10;99.90
7167;DHT22;3625;51.762;14.320;2022-10-31T21:16:31;12.00;99.90
7167;DHT22;3625;51.762;14.320;2022-10-31T21:19:03;12.00;99.90
7167;DHT22;3625;51.762;14.320;2022-10-31T21:21:35;12.10;99.90
7167;DHT22;3625;51.762;14.320;2022-10-31T21:24:07;12.10;99.90
7167;DHT22;3625;51.762;14.320;2022-10-31T21:26:40;12.00;99.90
7167;DHT22;3625;51.762;14.320;2022-10-31T21:29:13;12.10;99.90
7167;DHT22;3625;51.762;14.320;2022-10-31T21:31:44;12.10;99.90
7167;DHT22;3625;51.762;14.320;2022-10-31T21:34:14;12.20;99.90
7167;DHT22;3625;51.762;14.320;2022-10-31T21:36:43;12.20;99.90
7167;DHT22;3625;51.762;14.320;2022-10-31T21:39:12;13.70;99.90
7167;DHT22;3625;51.762;14.320;2022-10-31T21:46:39;12.40;99.90
7167;DHT22;3625;51.762;14.320;2022-10-31T21:49:10;12.40;99.90
7167;DHT22;3625;51.762;14.320;2022-10-31T21:51:39;12.40;99.90
7167;DHT22;3625;51.762;14.320;2022-10-31T21:54:11;12.40;99.90
7167;DHT22;3625;51.762;14.320;2022-10-31T21:56:58;12.40;99.90
7167;DHT22;3625;51.762;14.320;2022-10-31T21:59:29;12.30;99.90
7167;DHT22;3625;51.762;14.320;2022-10-31T22:01:58;12.30;99.90
7167;DHT22;3625;51.762;14.320;2022-10-31T22:04:29;12.20;99.90
7167;DHT22;3625;51.762;14.320;2022-10-31T22:06:57;12.20;99.90
7167;DHT22;3625;51.762;14.320;2022-10-31T22:09:26;12.20;99.90
7167;DHT22;3625;51.762;14.320;2022-10-31T22:21:55;11.90;99.90
7167;DHT22;3625;51.762;14.320;2022-10-31T22:26:52;11.80;99.90
7167;DHT22;3625;51.762;14.320;2022-10-31T22:29:21;11.80;99.90
7167;DHT22;3625;51.762;14.320;2022-10-31T22:31:50;11.80;99.90
7167;DHT22;3625;51.762;14.320;2022-10-31T22:41:57;11.60;99.90
7167;DHT22;3625;51.762;14.320;2022-10-31T22:46:54;11.60;99.90